Time;durP1;ratioP1;P1;durP2;ratioP2;P2;SDS_P1;SDS_P2;PMS_P1;PMS_P2;Temp;Humidity;BMP_temperature;BMP_pressure;BME280_temperature;BME280_humidity;BME280_pressure;Samples;Min_cycle;Max_cycle;Signal;HPM_P1;HPM_P2
2023/09/09 00:00:39;;;;;;;115.35;61.83;;;22.20;90.60;;;;;;4973892;28;95141;-46
2023/09/09 00:03:05;;;;;;;116.05;62.88;;;22.20;90.70;;;;;;4963257;28;95654;-46
2023/09/09 00:05:31;;;;;;;114.75;61.50;;;22.20;90.70;;;;;;4970458;28;95786;-46
2023/09/09 00:07:57;;;;;;;116.93;61.95;;;22.20;90.80;;;;;;4963556;28;99498;-50
2023/09/09 00:10:23;;;;;;;114.90;61.42;;;22.20;90.80;;;;;;4950976;28;94756;-46
2023/09/09 00:12:48;;;;;;;115.20;62.35;;;22.10;90.70;;;;;;4965744;28;95272;-46
2023/09/09 00:15:14;;;;;;;115.13;61.67;;;22.20;90.90;;;;;;4964343;28;95047;-46
2023/09/09 00:17:39;;;;;;;115.85;62.05;;;22.10;90.90;;;;;;4970676;28;94803;-46
2023/09/09 00:20:09;;;;;;;115.70;62.15;;;22.10;90.90;;;;;;4967056;28;94758;-46
2023/09/09 00:22:35;;;;;;;114.35;61.25;;;22.10;90.90;;;;;;4967967;28;94140;-46
2023/09/09 00:25:01;;;;;;;115.28;61.72;;;22.10;91.00;;;;;;4959911;28;95392;-48
2023/09/09 00:27:26;;;;;;;115.95;62.20;;;22.10;91.10;;;;;;4969609;28;94717;-46
2023/09/09 00:29:52;;;;;;;114.35;62.17;;;22.00;90.90;;;;;;4963788;28;96198;-48
2023/09/09 00:32:17;;;;;;;115.75;62.22;;;22.00;90.80;;;;;;4970454;28;95678;-47
2023/09/09 00:34:43;;;;;;;115.55;62.20;;;22.00;91.00;;;;;;4963275;28;95537;-47
2023/09/09 00:37:09;;;;;;;114.85;61.92;;;22.00;91.10;;;;;;4966272;28;94974;-48
2023/09/09 00:39:34;;;;;;;114.43;61.00;;;22.00;91.10;;;;;;4971022;28;95360;-47
2023/09/09 00:42:00;;;;;;;114.15;61.55;;;22.00;91.00;;;;;;4969516;28;95629;-46
2023/09/09 00:44:25;;;;;;;114.88;61.70;;;22.00;91.00;;;;;;4965854;28;95084;-46
2023/09/09 00:46:52;;;;;;;114.97;60.97;;;22.00;91.30;;;;;;4964921;28;94709;-46
2023/09/09 00:49:18;;;;;;;115.32;61.83;;;21.90;91.10;;;;;;4963813;28;96891;-46
2023/09/09 00:51:45;;;;;;;115.13;61.72;;;21.90;91.20;;;;;;4965902;28;94939;-46
2023/09/09 00:54:14;;;;;;;116.07;62.38;;;21.90;91.20;;;;;;4967055;28;96280;-46
2023/09/09 00:56:41;;;;;;;117.20;63.42;;;21.90;91.10;;;;;;4966078;28;95523;-46
2023/09/09 00:59:07;;;;;;;117.57;62.33;;;21.90;91.10;;;;;;4974188;28;95125;-47
2023/09/09 01:01:33;;;;;;;115.35;61.78;;;21.80;91.10;;;;;;4964980;28;95145;-47
2023/09/09 01:03:59;;;;;;;118.18;63.22;;;21.80;91.50;;;;;;4965038;28;95739;-47
2023/09/09 01:06:25;;;;;;;117.95;63.55;;;21.80;91.10;;;;;;4964982;28;95641;-46
2023/09/09 01:08:50;;;;;;;116.75;61.80;;;21.80;91.10;;;;;;4972298;28;95331;-48
2023/09/09 01:11:16;;;;;;;115.85;61.95;;;21.80;91.40;;;;;;4961595;28;94495;-47
2023/09/09 01:13:42;;;;;;;116.00;61.40;;;21.80;91.20;;;;;;4970474;28;95245;-46
2023/09/09 01:16:08;;;;;;;112.68;60.85;;;21.70;91.40;;;;;;4971420;28;95137;-46
2023/09/09 01:18:35;;;;;;;114.97;62.03;;;21.80;91.40;;;;;;4963488;28;97301;-47
2023/09/09 01:21:08;;;;;;;115.68;62.83;;;21.80;91.50;;;;;;4968826;28;96230;-46
2023/09/09 01:23:35;;;;;;;115.30;61.53;;;21.70;91.40;;;;;;4958414;28;95349;-48
2023/09/09 01:26:01;;;;;;;115.57;62.53;;;21.70;91.40;;;;;;4968451;28;94658;-46
2023/09/09 01:28:27;;;;;;;114.75;61.35;;;21.70;91.60;;;;;;4965658;28;94954;-46
2023/09/09 01:30:53;;;;;;;115.60;61.47;;;21.70;91.50;;;;;;4967171;28;95314;-46
2023/09/09 01:33:19;;;;;;;114.75;61.03;;;21.70;91.40;;;;;;4969314;28;95173;-48
2023/09/09 01:35:49;;;;;;;115.05;61.40;;;21.70;92.00;;;;;;4962341;28;95955;-47
2023/09/09 01:38:14;;;;;;;114.78;61.17;;;21.70;91.90;;;;;;4965947;28;94862;-46
2023/09/09 01:40:40;;;;;;;116.93;62.03;;;21.70;91.80;;;;;;4962649;28;96181;-46
2023/09/09 01:43:05;;;;;;;114.50;61.28;;;21.70;91.60;;;;;;4964682;28;96164;-47
2023/09/09 01:45:31;;;;;;;115.10;61.58;;;21.60;91.60;;;;;;4961310;28;95965;-48
2023/09/09 01:47:58;;;;;;;114.25;61.45;;;21.70;91.80;;;;;;4967891;28;94676;-47
2023/09/09 01:50:24;;;;;;;115.78;62.40;;;21.60;91.60;;;;;;4965165;28;96320;-48
2023/09/09 01:52:49;;;;;;;116.63;62.78;;;21.60;91.50;;;;;;4949671;28;96551;-46
2023/09/09 01:55:15;;;;;;;115.43;62.50;;;21.60;91.40;;;;;;4959753;28;95837;-46
2023/09/09 01:57:40;;;;;;;117.10;64.13;;;21.60;91.60;;;;;;4965864;28;95281;-47
2023/09/09 02:00:07;;;;;;;114.57;61.55;;;21.60;91.50;;;;;;4962105;28;94252;-46
2023/09/09 02:02:33;;;;;;;114.95;61.65;;;21.60;91.80;;;;;;4971815;28;95556;-46
2023/09/09 02:04:59;;;;;;;115.68;61.63;;;21.50;91.60;;;;;;4959473;28;95406;-46
2023/09/09 02:07:24;;;;;;;114.80;61.95;;;21.50;91.50;;;;;;4966739;28;98956;-46
2023/09/09 02:09:50;;;;;;;117.43;62.95;;;21.50;91.80;;;;;;4969696;28;94865;-47
2023/09/09 02:12:15;;;;;;;115.75;62.28;;;21.50;91.90;;;;;;4958592;28;94694;-47
2023/09/09 02:14:41;;;;;;;115.53;62.03;;;21.50;91.80;;;;;;4958195;28;95200;-47
2023/09/09 02:17:07;;;;;;;116.25;61.95;;;21.50;91.80;;;;;;4966567;28;95075;-49
2023/09/09 02:19:33;;;;;;;115.63;61.63;;;21.50;91.80;;;;;;4970073;28;94752;-47
2023/09/09 02:21:59;;;;;;;114.85;62.25;;;21.50;91.60;;;;;;4962565;28;98482;-47
2023/09/09 02:24:24;;;;;;;114.93;61.95;;;21.50;91.70;;;;;;4967965;28;95106;-46
2023/09/09 02:26:50;;;;;;;115.38;62.17;;;21.50;92.20;;;;;;4965007;28;96618;-46
2023/09/09 02:29:15;;;;;;;114.25;61.17;;;21.40;91.80;;;;;;4969474;28;98267;-49
2023/09/09 02:31:41;;;;;;;114.95;62.67;;;21.40;91.80;;;;;;4964636;28;96940;-46
2023/09/09 02:34:06;;;;;;;114.60;62.13;;;21.40;91.90;;;;;;4966953;28;99550;-47
2023/09/09 02:36:32;;;;;;;114.72;62.50;;;21.40;91.90;;;;;;4965359;28;95405;-47
2023/09/09 02:38:58;;;;;;;118.78;62.97;;;21.40;91.90;;;;;;4965226;28;95363;-47
2023/09/09 02:41:23;;;;;;;115.03;62.05;;;21.40;91.80;;;;;;4963841;28;97937;-46
2023/09/09 02:43:49;;;;;;;116.25;62.50;;;21.40;91.90;;;;;;4965834;28;95414;-49
2023/09/09 02:46:15;;;;;;;116.47;62.55;;;21.40;92.30;;;;;;4965355;28;96848;-45
2023/09/09 02:48:40;;;;;;;115.10;61.70;;;21.30;91.90;;;;;;4966093;28;94248;-46
2023/09/09 02:51:06;;;;;;;113.95;60.58;;;21.30;92.00;;;;;;4965816;28;95180;-46
2023/09/09 02:53:31;;;;;;;114.00;60.72;;;21.30;92.20;;;;;;4965290;28;95732;-45
2023/09/09 02:55:57;;;;;;;115.50;62.08;;;21.30;92.20;;;;;;4973280;28;97552;-46
2023/09/09 02:58:23;;;;;;;114.13;61.50;;;21.30;92.10;;;;;;4962432;28;95102;-46
2023/09/09 03:00:48;;;;;;;115.53;62.10;;;21.30;91.90;;;;;;4968542;28;95737;-45
2023/09/09 03:03:20;;;;;;;114.93;61.72;;;21.30;92.00;;;;;;4962686;28;95103;-45
2023/09/09 03:05:45;;;;;;;116.13;63.15;;;21.30;92.00;;;;;;4966642;28;95528;-47
2023/09/09 03:08:11;;;;;;;116.43;63.45;;;21.30;92.00;;;;;;4969038;28;97025;-46
2023/09/09 03:10:37;;;;;;;115.50;62.05;;;21.20;92.30;;;;;;4967730;28;96617;-45
2023/09/09 03:13:15;;;;;;;117.05;63.05;;;21.20;92.10;;;;;;4968036;28;94920;-48
2023/09/09 03:15:40;;;;;;;118.30;63.47;;;21.20;92.00;;;;;;4961725;28;96600;-45
2023/09/09 03:18:06;;;;;;;114.05;61.38;;;21.20;92.00;;;;;;4966954;28;96006;-45
2023/09/09 03:20:31;;;;;;;115.38;62.70;;;21.20;92.20;;;;;;4957151;28;98061;-46
2023/09/09 03:22:59;;;;;;;115.53;62.08;;;21.20;92.20;;;;;;4963731;28;97406;-45
2023/09/09 03:25:25;;;;;;;114.72;60.35;;;21.20;92.00;;;;;;4965659;28;97794;-45
2023/09/09 03:27:50;;;;;;;114.13;61.22;;;21.20;92.20;;;;;;4966620;28;95101;-45
2023/09/09 03:30:16;;;;;;;113.63;60.92;;;21.20;92.00;;;;;;4967656;28;95023;-47
2023/09/09 03:32:42;;;;;;;115.05;62.20;;;21.20;92.50;;;;;;4964510;28;94745;-45
2023/09/09 03:35:08;;;;;;;115.05;62.35;;;21.20;92.40;;;;;;4964050;28;94944;-46
2023/09/09 03:37:34;;;;;;;114.03;61.35;;;21.20;92.20;;;;;;4963043;28;99460;-46
2023/09/09 03:40:00;;;;;;;113.13;60.72;;;21.10;92.40;;;;;;4966859;28;95802;-47
2023/09/09 03:42:25;;;;;;;114.22;61.15;;;21.10;92.30;;;;;;4964288;28;96755;-46
2023/09/09 03:44:52;;;;;;;116.75;63.30;;;21.10;92.30;;;;;;4970454;28;95841;-47
2023/09/09 03:47:18;;;;;;;115.10;61.95;;;21.10;92.20;;;;;;4967498;28;94763;-45
2023/09/09 03:49:44;;;;;;;115.40;62.15;;;21.10;92.60;;;;;;4967592;28;99117;-45
2023/09/09 03:52:09;;;;;;;113.35;61.30;;;21.10;92.30;;;;;;4958553;28;97664;-46
2023/09/09 03:54:35;;;;;;;116.63;63.38;;;21.10;92.50;;;;;;4962291;28;96100;-46
2023/09/09 03:57:01;;;;;;;117.30;64.20;;;21.00;92.00;;;;;;4967250;28;96843;-46
2023/09/09 03:59:29;;;;;;;116.55;63.13;;;21.00;92.40;;;;;;4966571;28;95063;-47
2023/09/09 04:01:55;;;;;;;114.10;62.65;;;21.00;92.60;;;;;;4971771;28;94981;-46
2023/09/09 04:04:20;;;;;;;115.38;62.47;;;21.00;92.40;;;;;;4967953;28;94970;-46
2023/09/09 04:06:46;;;;;;;113.50;60.70;;;21.00;92.40;;;;;;4964289;28;99855;-45
2023/09/09 04:09:20;;;;;;;112.97;60.92;;;21.00;92.40;;;;;;4961025;28;98323;-45
2023/09/09 04:11:46;;;;;;;117.90;62.70;;;21.00;92.10;;;;;;4957606;28;96953;-48
2023/09/09 04:14:11;;;;;;;115.57;63.95;;;21.00;92.40;;;;;;4962335;28;94691;-44
2023/09/09 04:16:37;;;;;;;116.00;63.33;;;20.90;92.40;;;;;;4970078;28;94821;-45
2023/09/09 04:19:02;;;;;;;116.07;63.45;;;20.90;92.30;;;;;;4969324;28;97479;-46
2023/09/09 04:21:29;;;;;;;115.72;62.38;;;20.90;92.40;;;;;;4964298;28;95180;-47
2023/09/09 04:23:54;;;;;;;119.85;66.07;;;20.90;92.40;;;;;;4951844;28;94564;-47
2023/09/09 04:26:20;;;;;;;115.32;61.67;;;20.90;92.40;;;;;;4966502;28;95214;-49
2023/09/09 04:28:46;;;;;;;116.18;62.88;;;20.90;92.30;;;;;;4968601;28;95041;-49
2023/09/09 04:31:11;;;;;;;114.07;61.85;;;20.90;92.30;;;;;;4960852;28;95593;-46
2023/09/09 04:33:37;;;;;;;118.43;63.83;;;20.90;92.70;;;;;;4969526;28;95764;-45
2023/09/09 04:36:02;;;;;;;117.35;63.83;;;20.90;92.50;;;;;;4963367;28;100147;-45
2023/09/09 04:38:28;;;;;;;116.63;64.53;;;20.90;92.70;;;;;;4968669;28;95131;-47
2023/09/09 04:40:54;;;;;;;115.55;62.03;;;20.90;92.80;;;;;;4966651;28;97370;-45
2023/09/09 04:43:20;;;;;;;118.13;63.72;;;20.90;92.70;;;;;;4969210;28;95398;-46
2023/09/09 04:45:46;;;;;;;114.93;62.10;;;20.90;92.50;;;;;;4966307;28;94759;-46
2023/09/09 04:48:12;;;;;;;116.53;62.78;;;20.90;92.80;;;;;;4963917;28;95115;-48
2023/09/09 04:50:37;;;;;;;116.78;63.50;;;20.90;92.60;;;;;;4966952;28;94147;-45
2023/09/09 04:53:04;;;;;;;118.20;65.25;;;20.90;92.80;;;;;;4968580;28;95025;-48
2023/09/09 04:55:30;;;;;;;119.18;64.00;;;20.90;92.50;;;;;;4969239;28;95047;-45
2023/09/09 04:57:55;;;;;;;115.68;62.33;;;20.80;92.60;;;;;;4968014;28;95903;-46
2023/09/09 05:00:21;;;;;;;115.18;61.85;;;20.80;92.70;;;;;;4971551;28;94929;-47
2023/09/09 05:02:47;;;;;;;118.85;63.40;;;20.80;92.80;;;;;;4965040;28;94735;-45
2023/09/09 05:05:12;;;;;;;116.95;63.72;;;20.80;92.70;;;;;;4968718;28;95391;-46
2023/09/09 05:07:38;;;;;;;116.65;62.30;;;20.80;92.60;;;;;;4965897;28;94865;-45
2023/09/09 05:10:05;;;;;;;113.55;60.22;;;20.80;92.50;;;;;;4966073;28;96051;-46
2023/09/09 05:12:36;;;;;;;117.55;63.85;;;20.80;92.60;;;;;;4963747;28;96062;-47
2023/09/09 05:15:05;;;;;;;117.10;62.63;;;20.80;92.70;;;;;;4963952;28;97774;-45
2023/09/09 05:17:30;;;;;;;119.60;64.72;;;20.80;92.70;;;;;;4966404;28;96967;-45
2023/09/09 05:19:56;;;;;;;120.93;64.47;;;20.80;92.60;;;;;;4961879;28;99334;-47
2023/09/09 05:22:22;;;;;;;120.88;65.20;;;20.80;92.50;;;;;;4964833;28;96094;-46
2023/09/09 05:24:47;;;;;;;115.53;61.70;;;20.80;92.70;;;;;;4962567;28;97795;-46
2023/09/09 05:27:13;;;;;;;119.55;63.85;;;20.80;92.80;;;;;;4963870;28;95234;-46
2023/09/09 05:29:39;;;;;;;120.65;65.28;;;20.80;92.70;;;;;;4964820;28;97678;-46
2023/09/09 05:32:05;;;;;;;116.63;63.40;;;20.80;92.50;;;;;;4966597;28;94490;-45
2023/09/09 05:34:30;;;;;;;117.35;63.90;;;20.80;92.50;;;;;;4965249;28;95288;-45
2023/09/09 05:36:56;;;;;;;115.20;61.63;;;20.80;92.70;;;;;;4970887;28;95305;-45
2023/09/09 05:39:21;;;;;;;116.28;62.65;;;20.80;92.80;;;;;;4963294;28;94094;-46
2023/09/09 05:41:47;;;;;;;116.22;61.90;;;20.70;92.80;;;;;;4968928;28;94948;-45
2023/09/09 05:44:13;;;;;;;116.40;63.15;;;20.80;93.30;;;;;;4967939;28;94570;-49
2023/09/09 05:46:38;;;;;;;116.15;62.30;;;20.80;92.70;;;;;;4963895;28;95752;-47
2023/09/09 05:49:04;;;;;;;115.43;62.03;;;20.80;92.70;;;;;;4963888;28;95418;-47
2023/09/09 05:51:29;;;;;;;117.38;63.65;;;20.80;92.80;;;;;;4963952;28;95214;-46
2023/09/09 05:53:55;;;;;;;115.05;62.45;;;20.80;92.80;;;;;;4966896;28;97838;-46
2023/09/09 05:56:21;;;;;;;117.10;63.38;;;20.80;92.70;;;;;;4968138;28;97012;-46
2023/09/09 05:58:46;;;;;;;116.22;62.42;;;20.80;92.60;;;;;;4973383;28;95651;-47
2023/09/09 06:01:12;;;;;;;120.40;65.20;;;20.80;92.60;;;;;;4955619;28;97582;-46
2023/09/09 06:03:38;;;;;;;116.65;62.42;;;20.80;92.60;;;;;;4969427;28;94429;-45
2023/09/09 06:06:04;;;;;;;117.43;62.22;;;20.80;92.50;;;;;;4961254;28;96386;-46
2023/09/09 06:08:31;;;;;;;117.38;62.30;;;20.80;92.80;;;;;;4967660;28;94723;-46
2023/09/09 06:10:56;;;;;;;117.22;62.47;;;20.80;92.70;;;;;;4964477;28;96470;-45
2023/09/09 06:13:23;;;;;;;117.47;61.60;;;20.80;92.60;;;;;;4965625;28;97404;-47
2023/09/09 06:15:48;;;;;;;115.32;61.28;;;20.90;92.70;;;;;;4961192;28;95265;-46
2023/09/09 06:18:14;;;;;;;114.05;60.55;;;20.90;92.80;;;;;;4966348;28;95081;-45
2023/09/09 06:20:46;;;;;;;114.25;60.65;;;20.90;92.90;;;;;;4963419;28;94712;-47
2023/09/09 06:23:12;;;;;;;115.70;60.65;;;20.90;93.10;;;;;;4961407;28;97913;-46
2023/09/09 06:25:37;;;;;;;114.38;60.75;;;21.00;93.10;;;;;;4970943;28;95168;-45
2023/09/09 06:28:03;;;;;;;114.70;59.83;;;21.00;93.10;;;;;;4960641;28;97976;-46
2023/09/09 06:30:29;;;;;;;113.45;59.58;;;21.00;92.90;;;;;;4967042;28;97944;-45
2023/09/09 06:32:54;;;;;;;113.32;59.58;;;21.00;93.10;;;;;;4965202;28;94731;-46
2023/09/09 06:35:22;;;;;;;112.10;58.70;;;21.00;93.00;;;;;;4965803;28;100166;-48
2023/09/09 06:37:47;;;;;;;113.53;59.60;;;21.10;93.20;;;;;;4960926;28;95663;-48
2023/09/09 06:40:13;;;;;;;112.82;58.65;;;21.10;93.00;;;;;;4948615;28;95993;-47
2023/09/09 06:42:38;;;;;;;113.15;59.38;;;21.10;93.30;;;;;;4962654;28;97263;-46
2023/09/09 06:45:05;;;;;;;112.75;58.80;;;21.20;93.10;;;;;;4962797;28;95260;-46
2023/09/09 06:47:30;;;;;;;113.75;59.35;;;21.20;93.10;;;;;;4963272;28;95246;-50
2023/09/09 06:49:56;;;;;;;113.22;59.78;;;21.20;93.10;;;;;;4961314;28;95040;-49
2023/09/09 06:52:21;;;;;;;113.75;59.30;;;21.20;93.00;;;;;;4972881;28;94132;-48
2023/09/09 06:54:47;;;;;;;113.93;59.45;;;21.30;92.90;;;;;;4962558;28;100294;-50
2023/09/09 06:57:12;;;;;;;112.70;58.60;;;21.30;92.80;;;;;;4964569;28;98316;-48
2023/09/09 06:59:39;;;;;;;113.38;59.10;;;21.40;93.00;;;;;;4956408;28;97823;-48
2023/09/09 07:02:06;;;;;;;113.13;59.38;;;21.40;92.90;;;;;;4968360;28;95109;-48
2023/09/09 07:04:32;;;;;;;113.32;59.05;;;21.40;93.00;;;;;;4955625;28;95647;-49
2023/09/09 07:06:57;;;;;;;113.50;59.20;;;21.50;92.90;;;;;;4960266;28;103430;-49
2023/09/09 07:09:23;;;;;;;114.03;59.03;;;21.50;92.80;;;;;;4963331;28;98009;-51
2023/09/09 07:11:48;;;;;;;112.97;58.60;;;21.50;92.90;;;;;;4965192;28;95672;-51
2023/09/09 07:14:14;;;;;;;112.95;58.72;;;21.60;92.90;;;;;;4961082;28;99304;-49
2023/09/09 07:16:39;;;;;;;113.05;58.47;;;21.60;92.80;;;;;;4961688;28;95043;-50
2023/09/09 07:19:05;;;;;;;114.70;59.50;;;21.60;92.90;;;;;;4964550;28;97954;-52
2023/09/09 07:21:31;;;;;;;112.95;58.67;;;21.70;92.40;;;;;;4958592;28;95160;-48
2023/09/09 07:23:56;;;;;;;113.03;58.35;;;21.70;92.10;;;;;;4966017;28;98589;-49
2023/09/09 07:26:22;;;;;;;113.95;59.63;;;21.70;92.60;;;;;;4961549;28;97244;-49
2023/09/09 07:28:47;;;;;;;112.07;58.33;;;21.80;92.30;;;;;;4964028;28;95825;-48
2023/09/09 07:31:13;;;;;;;113.75;59.10;;;21.80;92.60;;;;;;4960428;28;99098;-47
2023/09/09 07:33:39;;;;;;;113.35;59.03;;;21.80;92.50;;;;;;4966788;28;95029;-52
2023/09/09 07:36:05;;;;;;;113.50;58.88;;;21.90;92.30;;;;;;4961170;28;98258;-47
2023/09/09 07:38:31;;;;;;;112.93;58.53;;;22.00;92.50;;;;;;4968666;28;96854;-47
2023/09/09 07:41:01;;;;;;;112.57;58.58;;;22.00;92.10;;;;;;4962106;28;99104;-48
2023/09/09 07:43:27;;;;;;;114.10;59.23;;;22.00;92.10;;;;;;4961944;28;96229;-47
2023/09/09 07:45:53;;;;;;;113.03;58.55;;;22.10;91.90;;;;;;4959694;28;95496;-49
2023/09/09 07:48:18;;;;;;;113.63;58.67;;;22.10;91.90;;;;;;4963986;28;95773;-49
2023/09/09 07:50:54;;;;;;;112.63;58.55;;;22.20;91.70;;;;;;4967751;28;95139;-49
2023/09/09 07:53:21;;;;;;;113.22;58.90;;;22.20;91.70;;;;;;4963810;28;95519;-50
2023/09/09 07:55:50;;;;;;;113.90;58.92;;;22.20;91.50;;;;;;4969754;28;97325;-50
2023/09/09 07:58:17;;;;;;;113.05;58.72;;;22.30;91.80;;;;;;4965202;28;95261;-48
2023/09/09 08:00:46;;;;;;;113.80;58.72;;;22.30;91.30;;;;;;4966264;28;96832;-47
2023/09/09 08:03:13;;;;;;;114.65;58.85;;;22.40;91.10;;;;;;4964633;28;95406;-47
2023/09/09 08:05:40;;;;;;;115.55;58.90;;;22.40;91.30;;;;;;4967448;28;96604;-46
2023/09/09 08:08:08;;;;;;;115.65;58.92;;;22.50;91.10;;;;;;4970300;28;96608;-47
2023/09/09 08:10:34;;;;;;;115.35;59.13;;;22.50;91.00;;;;;;4967008;28;94746;-47
2023/09/09 08:13:01;;;;;;;113.72;58.83;;;22.60;90.70;;;;;;4968227;28;100364;-48
2023/09/09 08:15:27;;;;;;;113.30;58.83;;;22.60;90.60;;;;;;4963658;28;95182;-49
2023/09/09 08:17:52;;;;;;;114.95;59.30;;;22.60;90.70;;;;;;4971865;28;95735;-48
2023/09/09 08:20:18;;;;;;;114.30;58.92;;;22.70;90.60;;;;;;4960965;28;95402;-47
2023/09/09 08:22:44;;;;;;;115.05;59.03;;;22.70;90.50;;;;;;4966344;28;99757;-47
2023/09/09 08:25:09;;;;;;;114.57;59.10;;;22.80;90.30;;;;;;4962005;28;98739;-46
2023/09/09 08:27:35;;;;;;;114.45;59.05;;;22.80;90.30;;;;;;4966696;28;94747;-46
2023/09/09 08:30:00;;;;;;;114.82;59.45;;;22.80;90.20;;;;;;4965315;28;96407;-46
2023/09/09 08:32:26;;;;;;;115.85;59.42;;;22.90;90.10;;;;;;4970715;28;97820;-47
2023/09/09 08:34:54;;;;;;;114.05;59.05;;;22.90;89.60;;;;;;4966088;28;95100;-48
2023/09/09 08:37:19;;;;;;;113.97;58.83;;;22.90;90.00;;;;;;4965756;28;96815;-46
2023/09/09 08:39:45;;;;;;;114.28;59.13;;;23.00;90.00;;;;;;4968190;28;97965;-46
2023/09/09 08:42:18;;;;;;;114.50;59.22;;;23.10;89.70;;;;;;4966693;28;99159;-46
2023/09/09 08:45:17;;;;;;;114.75;58.97;;;23.10;89.50;;;;;;4973704;28;95230;-47
2023/09/09 08:47:45;;;;;;;113.93;58.83;;;23.10;89.40;;;;;;4969969;28;94760;-47
2023/09/09 08:50:13;;;;;;;113.63;58.67;;;23.10;88.30;;;;;;4964777;28;95021;-47
2023/09/09 08:52:40;;;;;;;114.63;59.47;;;23.20;89.20;;;;;;4967568;28;99667;-46
2023/09/09 08:55:07;;;;;;;112.97;58.45;;;23.20;88.90;;;;;;4966186;28;95306;-46
2023/09/09 08:57:33;;;;;;;114.15;59.20;;;23.30;88.80;;;;;;4966381;28;97645;-46
2023/09/09 09:00:01;;;;;;;114.40;59.30;;;23.30;88.40;;;;;;4965130;28;94804;-46
2023/09/09 09:02:29;;;;;;;114.05;59.30;;;23.40;88.30;;;;;;4968425;28;97579;-46
2023/09/09 09:04:56;;;;;;;115.05;59.08;;;23.40;88.10;;;;;;4969189;28;98742;-47
2023/09/09 09:07:25;;;;;;;115.05;59.40;;;23.40;88.10;;;;;;4964912;28;95076;-46
2023/09/09 09:09:50;;;;;;;114.60;58.92;;;23.50;87.70;;;;;;4966977;28;95229;-48
2023/09/09 09:12:16;;;;;;;114.78;59.63;;;23.50;87.50;;;;;;4961064;28;95689;-49
2023/09/09 09:14:46;;;;;;;114.78;59.53;;;23.60;87.30;;;;;;4972252;28;96669;-52
2023/09/09 09:17:16;;;;;;;114.47;59.20;;;23.60;87.00;;;;;;4972695;28;94713;-49
2023/09/09 09:19:42;;;;;;;115.03;59.75;;;23.60;86.60;;;;;;4965499;28;95000;-50
2023/09/09 09:22:08;;;;;;;114.75;59.25;;;23.70;86.40;;;;;;4962799;28;95112;-47
2023/09/09 09:24:44;;;;;;;115.05;59.35;;;23.70;85.80;;;;;;4965124;28;95282;-51
2023/09/09 09:27:13;;;;;;;114.40;59.38;;;23.70;85.90;;;;;;4964532;28;96103;-48
2023/09/09 09:29:50;;;;;;;114.93;59.60;;;23.80;85.60;;;;;;4962222;28;95600;-49
2023/09/09 09:32:18;;;;;;;114.70;59.58;;;23.80;85.20;;;;;;4961553;28;102455;-48
2023/09/09 09:34:46;;;;;;;114.10;59.00;;;23.90;84.80;;;;;;4957624;28;95488;-50
2023/09/09 09:37:12;;;;;;;115.63;59.92;;;23.90;84.70;;;;;;4962834;28;95210;-48
2023/09/09 09:39:39;;;;;;;115.30;59.75;;;23.90;84.40;;;;;;4967387;28;96681;-48
2023/09/09 09:42:05;;;;;;;115.47;59.45;;;24.00;84.40;;;;;;4960900;28;95864;-46
2023/09/09 09:44:31;;;;;;;115.32;59.72;;;24.00;84.90;;;;;;4965065;28;94457;-48
2023/09/09 09:47:01;;;;;;;115.40;59.80;;;24.00;83.60;;;;;;4963951;28;95028;-50
2023/09/09 09:49:44;;;;;;;115.72;59.50;;;24.10;83.80;;;;;;4948913;28;95502;-48
2023/09/09 09:52:22;;;;;;;115.40;59.35;;;24.10;83.70;;;;;;4968531;28;95885;-49
2023/09/09 09:54:50;;;;;;;114.53;58.88;;;24.20;83.60;;;;;;4964210;28;100872;-51
2023/09/09 09:57:16;;;;;;;115.20;59.33;;;24.20;82.50;;;;;;4967233;28;95137;-50
2023/09/09 09:59:43;;;;;;;115.30;59.22;;;24.20;82.30;;;;;;4947480;28;97092;-50
2023/09/09 10:02:10;;;;;;;115.22;59.58;;;24.30;83.10;;;;;;4965017;28;96105;-49
2023/09/09 10:04:42;;;;;;;116.05;59.75;;;24.30;81.70;;;;;;4965919;28;95646;-47
2023/09/09 10:07:17;;;;;;;115.47;59.40;;;24.40;81.70;;;;;;4965156;28;95090;-47
2023/09/09 10:10:12;;;;;;;115.63;59.58;;;24.40;82.20;;;;;;4967575;28;94747;-49
2023/09/09 10:12:50;;;;;;;114.88;59.20;;;24.40;81.00;;;;;;4963789;28;96622;-49
2023/09/09 10:15:18;;;;;;;114.20;58.85;;;24.50;81.20;;;;;;4965575;28;99184;-50
2023/09/09 10:17:44;;;;;;;115.05;59.38;;;24.50;80.60;;;;;;4972039;28;96550;-47
2023/09/09 10:20:11;;;;;;;114.57;59.30;;;24.50;81.80;;;;;;4963426;28;96615;-47
2023/09/09 10:22:39;;;;;;;116.15;60.03;;;24.60;80.20;;;;;;4967783;28;95336;-48
2023/09/09 10:25:07;;;;;;;116.35;59.92;;;24.60;80.10;;;;;;4961867;28;95128;-47
2023/09/09 10:27:35;;;;;;;115.55;59.58;;;24.70;79.70;;;;;;4966865;28;95879;-48
2023/09/09 10:30:03;;;;;;;115.63;59.50;;;24.70;79.70;;;;;;4966617;28;95759;-48
2023/09/09 10:32:30;;;;;;;115.78;59.28;;;24.70;79.40;;;;;;4970400;28;99894;-46
2023/09/09 10:34:57;;;;;;;115.93;59.60;;;24.80;80.00;;;;;;4969902;28;95268;-46
2023/09/09 10:37:23;;;;;;;115.32;59.50;;;24.80;78.90;;;;;;4964761;28;97515;-46
2023/09/09 10:39:50;;;;;;;116.03;59.45;;;24.80;79.40;;;;;;4966832;28;95646;-46
2023/09/09 10:42:17;;;;;;;115.75;59.80;;;24.90;78.80;;;;;;4957155;28;97971;-48
2023/09/09 10:44:48;;;;;;;116.13;59.85;;;24.90;78.80;;;;;;4969111;28;95189;-46
2023/09/09 10:47:19;;;;;;;117.25;59.55;;;25.00;78.20;;;;;;4960889;28;96429;-47
2023/09/09 10:49:45;;;;;;;115.93;59.53;;;25.00;78.10;;;;;;4965352;28;94688;-46
2023/09/09 10:52:30;;;;;;;116.18;59.47;;;25.00;78.20;;;;;;4964310;28;94874;-46
2023/09/09 10:55:12;;;;;;;117.20;59.53;;;25.10;78.00;;;;;;4959845;28;95112;-48
2023/09/09 10:57:38;;;;;;;115.78;59.75;;;25.10;77.80;;;;;;4969770;28;97053;-47
2023/09/09 11:00:14;;;;;;;115.38;59.50;;;25.10;77.50;;;;;;4963761;28;93936;-46
2023/09/09 11:02:46;;;;;;;116.03;59.72;;;25.20;77.50;;;;;;4964876;28;95029;-46
2023/09/09 11:05:14;;;;;;;115.80;59.80;;;25.20;77.50;;;;;;4959964;28;95259;-49
2023/09/09 11:07:42;;;;;;;116.00;60.13;;;25.30;77.30;;;;;;4962143;28;97376;-46
2023/09/09 11:10:08;;;;;;;115.90;59.65;;;25.30;76.90;;;;;;4963493;28;94744;-47
2023/09/09 11:12:34;;;;;;;115.95;59.75;;;25.30;76.70;;;;;;4962500;28;95173;-46
2023/09/09 11:15:09;;;;;;;116.07;59.88;;;25.40;76.40;;;;;;4965040;28;95712;-46
2023/09/09 11:17:36;;;;;;;116.75;59.70;;;25.40;76.00;;;;;;4963321;28;95390;-47
2023/09/09 11:20:03;;;;;;;116.57;60.15;;;25.40;76.10;;;;;;4959023;28;95616;-47
2023/09/09 11:22:29;;;;;;;116.63;60.10;;;25.50;75.80;;;;;;4963506;28;97233;-48
2023/09/09 11:24:58;;;;;;;117.07;60.38;;;25.50;75.60;;;;;;4944187;28;96810;-46
2023/09/09 11:27:25;;;;;;;116.60;59.88;;;25.60;75.80;;;;;;4966922;28;94985;-48
2023/09/09 11:29:51;;;;;;;117.50;60.45;;;25.60;75.10;;;;;;4963654;28;94937;-51
2023/09/09 11:32:28;;;;;;;116.88;60.35;;;25.60;75.20;;;;;;4975705;28;97601;-52
2023/09/09 11:34:55;;;;;;;118.20;60.28;;;25.60;75.20;;;;;;4967161;28;95084;-49
2023/09/09 11:37:24;;;;;;;116.78;59.63;;;25.70;74.90;;;;;;4963221;28;100472;-48
2023/09/09 11:39:54;;;;;;;117.45;60.00;;;25.70;74.70;;;;;;4967872;28;95462;-52
2023/09/09 11:42:20;;;;;;;116.22;59.50;;;25.70;74.50;;;;;;4963390;28;97708;-47
2023/09/09 11:44:46;;;;;;;116.70;60.33;;;25.80;74.50;;;;;;4969292;28;94925;-47
2023/09/09 11:47:14;;;;;;;116.63;60.03;;;25.80;74.30;;;;;;4957902;28;95245;-49
2023/09/09 11:49:43;;;;;;;116.45;59.92;;;25.80;74.20;;;;;;4969939;28;94245;-47
2023/09/09 11:52:09;;;;;;;116.43;59.88;;;25.80;74.10;;;;;;4966885;28;100620;-48
2023/09/09 11:54:35;;;;;;;116.80;59.63;;;25.90;74.10;;;;;;4969226;28;98186;-51
2023/09/09 11:57:08;;;;;;;116.63;59.97;;;25.90;74.00;;;;;;4966975;28;98859;-49
2023/09/09 11:59:50;;;;;;;115.95;60.05;;;26.00;74.20;;;;;;4967513;28;94775;-49
2023/09/09 12:02:25;;;;;;;116.60;60.13;;;26.00;73.80;;;;;;4968482;28;97155;-47
2023/09/09 12:04:55;;;;;;;115.95;59.72;;;26.00;73.60;;;;;;4968739;28;100453;-49
2023/09/09 12:07:23;;;;;;;116.70;60.17;;;26.10;73.20;;;;;;4969827;28;95373;-48
2023/09/09 12:09:49;;;;;;;117.57;60.40;;;26.10;73.10;;;;;;4968259;28;95280;-48
2023/09/09 12:12:16;;;;;;;116.93;60.50;;;26.10;73.20;;;;;;4967119;28;95118;-52
2023/09/09 12:14:41;;;;;;;116.40;59.83;;;26.10;73.00;;;;;;4967425;28;95330;-50
2023/09/09 12:17:08;;;;;;;116.53;59.78;;;26.20;72.80;;;;;;4965175;28;95161;-49